createdAt,value
2022-12-12T00:01:33.686Z,2.90
2022-12-12T00:04:02.821Z,3.40
2022-12-12T00:06:31.129Z,3.53
2022-12-12T00:08:59.896Z,3.85
2022-12-12T00:11:30.167Z,3.80
2022-12-12T00:13:58.578Z,4.05
2022-12-12T00:16:29.391Z,4.35
2022-12-12T00:18:57.847Z,4.00
2022-12-12T00:21:28.660Z,4.00
2022-12-12T00:23:57.295Z,3.40
2022-12-12T00:26:27.264Z,3.10
2022-12-12T00:28:57.300Z,2.85
2022-12-12T00:31:25.555Z,3.10
2022-12-12T00:33:53.558Z,2.58
2022-12-12T00:36:24.010Z,3.20
2022-12-12T00:38:52.612Z,2.60
2022-12-12T00:41:21.435Z,2.85
2022-12-12T00:43:49.494Z,2.40
2022-12-12T00:46:21.087Z,1.95
2022-12-12T00:48:49.178Z,2.58
2022-12-12T00:51:19.102Z,2.20
2022-12-12T00:53:47.334Z,2.67
2022-12-12T00:56:16.464Z,2.90
2022-12-12T00:58:44.459Z,2.83
2022-12-12T01:01:14.585Z,2.70
2022-12-12T01:03:45.270Z,2.80
2022-12-12T01:06:13.408Z,2.80
2022-12-12T01:08:41.825Z,2.78
2022-12-12T01:11:12.355Z,2.30
2022-12-12T01:13:41.430Z,1.85
2022-12-12T01:16:09.987Z,2.00
2022-12-12T01:18:37.981Z,2.05
2022-12-12T01:21:09.834Z,1.95
2022-12-12T01:23:38.225Z,2.00
2022-12-12T01:26:08.810Z,1.90
2022-12-12T01:28:37.116Z,1.70
2022-12-12T01:31:05.523Z,1.50
2022-12-12T01:33:34.156Z,1.77
2022-12-12T01:36:02.196Z,1.48
2022-12-12T01:38:32.056Z,1.70
2022-12-12T01:40:59.995Z,1.60
2022-12-12T01:43:30.405Z,1.67
2022-12-12T01:46:29.287Z,3.20
2022-12-12T01:49:00.938Z,1.60
2022-12-12T01:51:31.259Z,1.35
2022-12-12T01:54:05.104Z,1.50
2022-12-12T01:56:34.110Z,1.42
2022-12-12T01:59:06.049Z,1.50
2022-12-12T02:01:36.141Z,1.42
2022-12-12T02:04:05.127Z,1.55
2022-12-12T02:06:33.509Z,1.27
2022-12-12T02:09:07.499Z,1.40
2022-12-12T02:11:43.499Z,1.50
2022-12-12T02:14:13.689Z,1.55
2022-12-12T02:17:05.778Z,1.70
2022-12-12T02:20:06.368Z,1.77
2022-12-12T02:23:01.078Z,1.70
2022-12-12T02:25:57.968Z,1.70
2022-12-12T02:28:48.000Z,1.45
2022-12-12T02:31:24.152Z,1.65
2022-12-12T02:33:57.798Z,1.33
2022-12-12T02:36:36.027Z,1.50
2022-12-12T02:39:08.390Z,1.40
2022-12-12T02:41:41.470Z,1.55
2022-12-12T02:44:17.440Z,1.50
2022-12-12T02:46:53.347Z,1.50
2022-12-12T02:49:26.189Z,1.83
2022-12-12T02:51:55.336Z,2.25
2022-12-12T02:54:23.889Z,1.80
2022-12-12T02:56:54.377Z,2.10
2022-12-12T02:59:28.470Z,2.10
2022-12-12T03:02:32.071Z,1.90
2022-12-12T03:05:45.478Z,2.45
2022-12-12T03:08:29.179Z,2.50
2022-12-12T03:11:00.088Z,2.28
2022-12-12T03:13:36.499Z,2.97
2022-12-12T03:16:14.549Z,2.60
2022-12-12T03:18:49.037Z,2.85
2022-12-12T03:21:23.077Z,3.03
2022-12-12T03:23:54.238Z,2.65
2022-12-12T03:26:25.769Z,2.65
2022-12-12T03:28:58.680Z,2.67
2022-12-12T03:31:31.819Z,2.75
2022-12-12T03:34:03.522Z,2.70
2022-12-12T03:36:37.679Z,3.13
2022-12-12T03:39:10.578Z,2.78
2022-12-12T03:41:42.692Z,2.40
2022-12-12T03:44:16.590Z,2.40
2022-12-12T03:46:51.918Z,2.15
2022-12-12T03:49:25.109Z,3.05
2022-12-12T03:51:59.087Z,2.30
2022-12-12T03:54:33.601Z,1.92
2022-12-12T03:57:08.092Z,2.22
2022-12-12T03:59:39.838Z,2.10
2022-12-12T04:02:15.901Z,1.92
2022-12-12T04:04:50.386Z,2.17
2022-12-12T04:07:24.557Z,2.40
2022-12-12T04:10:11.772Z,2.10
2022-12-12T04:13:03.716Z,2.20
2022-12-12T04:15:54.038Z,1.70
2022-12-12T04:18:30.756Z,2.28
2022-12-12T04:21:26.567Z,2.10
2022-12-12T04:24:03.227Z,2.10
2022-12-12T04:26:42.243Z,2.13
2022-12-12T04:29:35.159Z,1.80
2022-12-12T04:32:10.471Z,2.20
2022-12-12T04:34:42.807Z,2.10
2022-12-12T04:37:15.598Z,2.15
2022-12-12T04:39:49.696Z,2.20
2022-12-12T04:42:21.856Z,2.17
2022-12-12T04:44:52.936Z,2.15
2022-12-12T04:47:22.238Z,2.33
2022-12-12T04:49:52.360Z,2.70
2022-12-12T04:52:23.927Z,2.80
2022-12-12T04:55:01.266Z,2.78
2022-12-12T04:57:33.707Z,2.60
2022-12-12T05:00:02.166Z,2.55
2022-12-12T05:02:44.594Z,2.58
2022-12-12T05:05:19.735Z,2.70
2022-12-12T05:07:55.471Z,2.80
2022-12-12T05:10:25.668Z,2.28
2022-12-12T05:12:59.550Z,3.28
2022-12-12T05:15:29.731Z,3.53
2022-12-12T05:18:02.269Z,3.22
2022-12-12T05:20:30.478Z,2.47
2022-12-12T05:22:58.562Z,2.10
2022-12-12T05:25:27.996Z,2.42
2022-12-12T05:27:56.051Z,1.90
2022-12-12T05:30:24.422Z,2.40
2022-12-12T05:32:53.250Z,2.35
2022-12-12T05:35:22.080Z,2.28
2022-12-12T05:37:52.094Z,1.73
2022-12-12T05:40:24.270Z,2.05
2022-12-12T05:42:55.055Z,1.95
2022-12-12T05:45:23.523Z,1.75
2022-12-12T05:47:51.803Z,1.75
2022-12-12T05:50:20.644Z,3.00
2022-12-12T05:52:49.889Z,3.30
2022-12-12T05:55:18.452Z,2.60
2022-12-12T05:57:46.637Z,2.92
2022-12-12T06:00:17.261Z,3.85
2022-12-12T06:02:45.833Z,3.42
2022-12-12T06:05:15.153Z,3.03
2022-12-12T06:07:45.196Z,2.50
2022-12-12T06:10:14.080Z,3.03
2022-12-12T06:12:42.391Z,3.50
2022-12-12T06:15:11.599Z,3.20
2022-12-12T06:17:41.807Z,3.50
2022-12-12T06:20:10.832Z,3.72
2022-12-12T06:22:39.163Z,3.30
2022-12-12T06:25:09.351Z,3.30
2022-12-12T06:27:37.634Z,3.70
2022-12-12T06:30:07.376Z,3.72
2022-12-12T06:32:35.775Z,3.33
2022-12-12T06:35:06.687Z,4.03
2022-12-12T06:37:35.386Z,3.28
2022-12-12T06:40:04.640Z,2.67
2022-12-12T06:42:33.289Z,2.45
2022-12-12T06:45:01.943Z,2.10
2022-12-12T06:47:30.307Z,2.67
2022-12-12T06:49:58.541Z,2.35
2022-12-12T06:52:28.461Z,1.95
2022-12-12T06:54:56.889Z,1.70
2022-12-12T06:57:25.190Z,1.80
2022-12-12T06:59:53.650Z,2.47
2022-12-12T07:02:29.325Z,2.20
2022-12-12T07:07:27.888Z,2.30
2022-12-12T07:09:56.111Z,2.55
2022-12-12T07:12:24.471Z,6.55
2022-12-12T07:14:53.583Z,3.83
2022-12-12T07:17:23.012Z,3.80
2022-12-12T07:19:51.588Z,2.95
2022-12-12T07:22:19.777Z,2.90
2022-12-12T07:24:50.797Z,3.13
2022-12-12T07:27:21.829Z,2.80
2022-12-12T07:29:50.405Z,2.40
2022-12-12T07:32:18.598Z,2.35
2022-12-12T07:34:46.838Z,2.90
2022-12-12T07:37:15.261Z,3.08
2022-12-12T07:39:44.072Z,3.33
2022-12-12T07:42:13.909Z,3.00
2022-12-12T07:44:42.193Z,2.97
2022-12-12T07:47:11.882Z,3.13
2022-12-12T07:49:40.189Z,3.30
2022-12-12T07:52:08.569Z,3.63
2022-12-12T07:54:36.901Z,4.10
2022-12-12T07:57:05.033Z,3.67
2022-12-12T07:59:34.818Z,3.80
2022-12-12T08:02:03.383Z,3.47
2022-12-12T08:04:32.312Z,3.67
2022-12-12T08:07:05.445Z,3.40
2022-12-12T08:09:37.457Z,2.90
2022-12-12T08:12:06.687Z,2.90
2022-12-12T08:14:37.572Z,2.70
2022-12-12T08:17:05.908Z,2.72
2022-12-12T08:19:34.356Z,2.97
2022-12-12T08:22:02.761Z,3.15
2022-12-12T08:24:31.196Z,3.10
2022-12-12T08:26:59.474Z,2.85
2022-12-12T08:29:28.025Z,3.38
2022-12-12T08:31:58.156Z,3.28
2022-12-12T08:34:26.484Z,4.10
2022-12-12T08:36:55.466Z,4.50
2022-12-12T08:39:23.897Z,4.72
2022-12-12T08:41:52.443Z,4.22
2022-12-12T08:44:21.709Z,4.00
2022-12-12T08:46:50.676Z,3.53
2022-12-12T08:49:20.722Z,3.58
2022-12-12T08:51:49.019Z,3.42
2022-12-12T08:54:17.598Z,3.70
2022-12-12T08:56:45.726Z,3.35
2022-12-12T08:59:14.309Z,4.05
2022-12-12T09:01:42.798Z,4.00
2022-12-12T09:04:11.163Z,3.90
2022-12-12T09:06:41.197Z,4.03
2022-12-12T09:09:09.450Z,4.00
2022-12-12T09:11:37.771Z,3.72
2022-12-12T09:14:05.954Z,3.25
2022-12-12T09:16:34.454Z,3.13
2022-12-12T09:19:03.023Z,3.42
2022-12-12T09:21:31.291Z,3.70
2022-12-12T09:24:02.407Z,4.22
2022-12-12T09:26:30.834Z,3.83
2022-12-12T09:28:59.079Z,3.95
2022-12-12T09:31:27.248Z,3.20
2022-12-12T09:33:55.097Z,3.67
2022-12-12T09:36:23.242Z,4.07
2022-12-12T09:38:51.552Z,4.50
2022-12-12T09:41:25.131Z,4.07
2022-12-12T09:43:57.161Z,3.28
2022-12-12T09:46:33.922Z,3.20
2022-12-12T09:49:08.111Z,3.30
2022-12-12T09:51:36.782Z,3.72
2022-12-12T09:54:04.982Z,4.25
2022-12-12T09:56:43.034Z,4.00
2022-12-12T09:59:16.293Z,3.90
2022-12-12T10:01:59.642Z,3.50
2022-12-12T10:04:38.730Z,3.50
2022-12-12T10:07:15.975Z,3.95
2022-12-12T10:09:56.724Z,4.18
2022-12-12T10:12:27.498Z,4.78
2022-12-12T10:14:58.536Z,2.85
2022-12-12T10:17:31.771Z,3.20
2022-12-12T10:20:04.787Z,2.30
2022-12-12T10:22:39.087Z,2.55
2022-12-12T10:25:17.235Z,2.88
2022-12-12T10:27:46.708Z,3.40
2022-12-12T10:30:16.947Z,5.03
2022-12-12T10:33:03.037Z,8.70
2022-12-12T10:35:39.009Z,4.00
2022-12-12T10:38:24.492Z,2.27
2022-12-12T10:41:00.397Z,2.80
2022-12-12T10:43:34.976Z,2.78
2022-12-12T10:46:22.390Z,2.45
2022-12-12T10:48:51.487Z,2.25
2022-12-12T10:51:21.867Z,3.80
2022-12-12T10:53:50.319Z,8.32
2022-12-12T10:56:21.318Z,13.75
2022-12-12T10:58:56.288Z,7.47
2022-12-12T11:02:00.581Z,5.30
2022-12-12T11:04:18.369Z,4.38
2022-12-12T11:06:52.457Z,3.80
2022-12-12T11:09:22.716Z,3.83
2022-12-12T11:12:01.737Z,3.70
2022-12-12T11:14:35.565Z,4.10
2022-12-12T11:17:21.646Z,4.03
2022-12-12T11:19:49.708Z,4.13
2022-12-12T11:22:38.719Z,3.95
2022-12-12T11:25:08.156Z,4.20
2022-12-12T11:27:39.818Z,3.60
2022-12-12T11:30:24.157Z,4.07
2022-12-12T11:32:55.013Z,4.22
2022-12-12T11:35:26.528Z,3.70
2022-12-12T11:37:58.717Z,3.78
2022-12-12T11:40:28.609Z,4.63
2022-12-12T11:43:14.676Z,4.93
2022-12-12T11:45:57.335Z,5.33
2022-12-12T11:48:37.356Z,4.90
2022-12-12T11:51:07.591Z,5.70
2022-12-12T11:53:38.117Z,4.65
2022-12-12T11:56:28.648Z,4.57
2022-12-12T11:59:05.967Z,3.50
2022-12-12T12:01:44.680Z,2.72
2022-12-12T12:04:23.093Z,2.85
2022-12-12T12:07:08.746Z,2.88
2022-12-12T12:09:46.383Z,3.63
2022-12-12T12:12:17.877Z,3.10
2022-12-12T12:15:08.105Z,4.53
2022-12-12T12:18:02.024Z,2.58
2022-12-12T12:20:40.445Z,2.90
2022-12-12T12:23:23.682Z,3.20
2022-12-12T12:25:58.938Z,2.58
2022-12-12T12:28:45.969Z,2.70
2022-12-12T12:31:22.355Z,2.63
2022-12-12T12:34:03.222Z,2.40
2022-12-12T12:36:39.877Z,2.40
2022-12-12T12:41:53.670Z,2.22
2022-12-12T12:44:33.570Z,1.67
2022-12-12T12:47:11.370Z,1.80
2022-12-12T12:49:45.731Z,1.98
2022-12-12T12:52:17.827Z,3.35
2022-12-12T12:54:48.357Z,4.13
2022-12-12T12:57:19.890Z,8.77
2022-12-12T12:59:52.719Z,7.05
2022-12-12T13:02:27.645Z,4.97
2022-12-12T13:05:07.292Z,6.20
2022-12-12T13:07:43.299Z,3.95
2022-12-12T13:10:21.148Z,4.43
2022-12-12T13:12:55.101Z,3.78
2022-12-12T13:15:27.187Z,6.00
2022-12-12T13:18:05.315Z,4.20
2022-12-12T13:20:39.518Z,3.95
2022-12-12T13:23:34.051Z,4.53
2022-12-12T13:26:06.856Z,4.82
2022-12-12T13:28:41.020Z,5.35
2022-12-12T13:31:39.537Z,4.70
2022-12-12T13:34:10.641Z,4.75
2022-12-12T13:36:44.852Z,4.25
2022-12-12T13:39:27.002Z,4.30
2022-12-12T13:41:57.601Z,3.30
2022-12-12T13:44:38.532Z,4.00
2022-12-12T13:47:15.102Z,3.95
2022-12-12T13:52:26.421Z,6.60
2022-12-12T13:55:02.845Z,4.88
2022-12-12T13:57:34.031Z,5.75
2022-12-12T14:00:29.351Z,8.55
2022-12-12T14:03:14.394Z,17.08
2022-12-12T14:05:44.066Z,13.40
2022-12-12T14:08:24.208Z,9.15
2022-12-12T14:10:56.401Z,10.43
2022-12-12T14:13:41.675Z,12.20
2022-12-12T14:16:26.472Z,18.60
2022-12-12T14:19:02.213Z,9.93
2022-12-12T14:21:47.072Z,8.10
2022-12-12T14:25:03.533Z,10.93
2022-12-12T14:28:02.803Z,8.93
2022-12-12T14:30:55.236Z,7.43
2022-12-12T14:33:59.892Z,7.20
2022-12-12T14:36:54.142Z,7.70
2022-12-12T14:39:39.690Z,6.50
2022-12-12T14:42:16.151Z,6.15
2022-12-12T14:44:50.704Z,5.93
2022-12-12T14:47:19.522Z,6.22
2022-12-12T14:49:47.851Z,6.60
2022-12-12T14:52:19.816Z,6.40
2022-12-12T14:54:49.213Z,5.70
2022-12-12T14:57:23.303Z,7.20
2022-12-12T14:59:52.862Z,7.72
2022-12-12T15:02:24.621Z,6.20
2022-12-12T15:05:00.880Z,6.03
2022-12-12T15:07:33.425Z,5.78
2022-12-12T15:10:01.442Z,6.22
2022-12-12T15:12:34.380Z,5.00
2022-12-12T15:15:05.402Z,4.78
2022-12-12T15:17:40.850Z,4.93
2022-12-12T15:20:16.365Z,4.95
2022-12-12T15:22:54.311Z,5.47
2022-12-12T15:25:24.343Z,4.70
2022-12-12T15:27:56.296Z,6.30
2022-12-12T15:30:32.522Z,5.35
2022-12-12T15:33:01.698Z,5.70
2022-12-12T15:35:29.793Z,5.85
2022-12-12T15:37:59.003Z,5.40
2022-12-12T15:40:30.215Z,5.38
2022-12-12T15:43:00.412Z,4.80
2022-12-12T15:45:35.713Z,4.35
2022-12-12T15:48:04.647Z,3.97
2022-12-12T15:50:47.238Z,4.78
2022-12-12T15:53:21.158Z,5.88
2022-12-12T15:55:59.646Z,4.40
2022-12-12T15:58:30.247Z,6.55
2022-12-12T16:01:20.855Z,4.78
2022-12-12T16:03:58.696Z,3.58
2022-12-12T16:06:28.294Z,4.60
2022-12-12T16:09:08.126Z,4.55
2022-12-12T16:11:41.870Z,4.55
2022-12-12T16:14:42.902Z,4.47
2022-12-12T16:17:16.078Z,4.45
2022-12-12T16:19:47.465Z,3.78
2022-12-12T16:22:24.164Z,5.35
2022-12-12T16:24:53.634Z,4.55
2022-12-12T16:27:21.731Z,5.25
2022-12-12T16:29:49.726Z,4.72
2022-12-12T16:32:24.656Z,6.43
2022-12-12T16:34:54.741Z,6.30
2022-12-12T16:37:22.673Z,6.45
2022-12-12T16:39:50.328Z,5.85
2022-12-12T16:42:21.104Z,6.35
2022-12-12T16:44:48.869Z,6.10
2022-12-12T16:47:20.838Z,7.80
2022-12-12T16:49:49.165Z,6.80
2022-12-12T16:52:19.732Z,9.20
2022-12-12T16:54:53.263Z,9.90
2022-12-12T16:57:22.620Z,10.60
2022-12-12T16:59:50.365Z,10.57
2022-12-12T17:02:21.846Z,8.98
2022-12-12T17:04:50.754Z,9.07
2022-12-12T17:07:18.602Z,9.73
2022-12-12T17:09:47.543Z,11.65
2022-12-12T17:12:16.172Z,11.82
2022-12-12T17:14:44.631Z,32.72
2022-12-12T17:17:12.736Z,71.88
2022-12-12T17:19:42.189Z,45.70
2022-12-12T17:22:10.016Z,42.15
2022-12-12T17:24:37.970Z,45.28
2022-12-12T17:27:05.837Z,33.63
2022-12-12T17:29:33.759Z,30.08
2022-12-12T17:32:01.889Z,18.63
2022-12-12T17:34:29.970Z,18.13
2022-12-12T17:36:59.797Z,14.80
2022-12-12T17:39:28.100Z,13.95
2022-12-12T17:41:57.786Z,12.68
2022-12-12T17:44:26.131Z,14.35
2022-12-12T17:46:54.198Z,13.60
2022-12-12T17:49:22.340Z,13.95
2022-12-12T17:51:50.419Z,14.60
2022-12-12T17:54:20.396Z,15.18
2022-12-12T17:56:48.857Z,15.45
2022-12-12T17:59:17.061Z,16.05
2022-12-12T18:01:45.360Z,16.20
2022-12-12T18:04:13.578Z,16.92
2022-12-12T18:06:41.828Z,18.55
2022-12-12T18:09:09.847Z,18.70
2022-12-12T18:11:42.348Z,19.52
2022-12-12T18:14:16.203Z,19.90
2022-12-12T18:16:48.148Z,18.33
2022-12-12T18:19:16.385Z,17.58
2022-12-12T18:22:00.414Z,19.05
2022-12-12T18:24:33.268Z,17.40
2022-12-12T18:27:03.803Z,18.23
2022-12-12T18:29:32.484Z,19.42
2022-12-12T18:32:00.557Z,15.48
2022-12-12T18:34:28.651Z,15.30
2022-12-12T18:36:56.600Z,14.25
2022-12-12T18:39:24.727Z,12.30
2022-12-12T18:41:53.212Z,12.00
2022-12-12T18:44:23.249Z,10.60
2022-12-12T18:46:52.288Z,10.80
2022-12-12T18:49:20.499Z,11.02
2022-12-12T18:51:48.567Z,9.88
2022-12-12T18:54:17.296Z,11.07
2022-12-12T18:56:46.399Z,11.30
2022-12-12T18:59:15.435Z,14.48
2022-12-12T19:01:45.430Z,12.32
2022-12-12T19:04:22.555Z,11.52
2022-12-12T19:06:53.144Z,14.15
2022-12-12T19:09:22.489Z,12.40
2022-12-12T19:11:50.493Z,13.60
2022-12-12T19:14:18.685Z,14.00
2022-12-12T19:16:48.789Z,12.02
2022-12-12T19:19:16.998Z,12.50
2022-12-12T19:21:45.300Z,12.90
2022-12-12T19:24:13.448Z,13.15
2022-12-12T19:26:44.052Z,11.48
2022-12-12T19:29:14.165Z,12.65
2022-12-12T19:31:42.493Z,12.38
2022-12-12T19:34:17.508Z,11.00
2022-12-12T19:36:45.862Z,11.48
2022-12-12T19:39:14.046Z,10.75
2022-12-12T19:41:42.581Z,10.10
2022-12-12T19:44:13.287Z,10.63
2022-12-12T19:46:42.997Z,10.10
2022-12-12T19:49:13.448Z,16.23
2022-12-12T19:51:45.211Z,13.98
2022-12-12T19:54:16.085Z,16.92
2022-12-12T19:56:45.375Z,18.92
2022-12-12T19:59:14.617Z,17.63
2022-12-12T20:01:43.620Z,17.70
2022-12-12T20:04:15.948Z,16.42
2022-12-12T20:06:46.558Z,16.77
2022-12-12T20:09:16.556Z,13.90
2022-12-12T20:11:45.691Z,12.35
2022-12-12T20:14:15.276Z,11.75
2022-12-12T20:16:44.401Z,10.65
2022-12-12T20:19:14.050Z,9.13
2022-12-12T20:22:03.635Z,11.15
2022-12-12T20:24:37.518Z,11.40
2022-12-12T20:27:06.124Z,11.35
2022-12-12T20:29:34.138Z,16.27
2022-12-12T20:32:03.190Z,15.35
2022-12-12T20:34:31.564Z,13.90
2022-12-12T20:37:01.223Z,9.18
2022-12-12T20:39:29.793Z,9.27
2022-12-12T20:41:58.043Z,8.05
2022-12-12T20:44:26.353Z,6.78
2022-12-12T20:46:54.877Z,6.85
2022-12-12T20:49:24.303Z,6.70
2022-12-12T20:51:56.303Z,5.65
2022-12-12T20:54:28.717Z,5.82
2022-12-12T20:56:57.871Z,5.80
2022-12-12T20:59:27.220Z,6.65
2022-12-12T21:01:55.817Z,5.93
2022-12-12T21:04:24.467Z,6.07
2022-12-12T21:06:52.940Z,6.38
2022-12-12T21:09:25.598Z,7.50
2022-12-12T21:11:57.022Z,6.95
2022-12-12T21:14:25.716Z,7.10
2022-12-12T21:16:53.914Z,7.03
2022-12-12T21:19:23.894Z,7.20
2022-12-12T21:21:52.653Z,6.50
2022-12-12T21:24:21.461Z,6.90
2022-12-12T21:26:49.762Z,6.80
2022-12-12T21:29:19.464Z,6.43
2022-12-12T21:31:51.447Z,6.68
2022-12-12T21:34:22.242Z,7.05
2022-12-12T21:36:54.678Z,7.13
2022-12-12T21:39:28.648Z,7.38
2022-12-12T21:41:56.929Z,7.22
2022-12-12T21:44:26.900Z,6.80
2022-12-12T21:46:55.286Z,6.05
2022-12-12T21:49:27.008Z,5.38
2022-12-12T21:51:56.681Z,6.45
2022-12-12T21:54:25.048Z,5.88
2022-12-12T21:56:53.437Z,5.55
2022-12-12T21:59:21.639Z,6.10
2022-12-12T22:01:52.086Z,6.25
2022-12-12T22:04:20.007Z,5.93
2022-12-12T22:06:48.132Z,6.45
2022-12-12T22:09:16.308Z,6.97
2022-12-12T22:11:48.260Z,6.57
2022-12-12T22:14:20.139Z,6.30
2022-12-12T22:16:48.174Z,6.25
2022-12-12T22:19:20.949Z,6.55
2022-12-12T22:21:49.248Z,5.60
2022-12-12T22:24:17.727Z,5.57
2022-12-12T22:26:47.890Z,7.35
2022-12-12T22:29:19.097Z,7.55
2022-12-12T22:31:50.558Z,9.25
2022-12-12T22:34:22.508Z,8.07
2022-12-12T22:36:53.202Z,7.53
2022-12-12T22:39:23.707Z,8.95
2022-12-12T22:41:52.664Z,8.77
2022-12-12T22:44:22.089Z,11.57
2022-12-12T22:46:51.611Z,8.82
2022-12-12T22:49:25.941Z,8.60
2022-12-12T22:51:54.974Z,9.32
2022-12-12T22:54:22.797Z,8.95
2022-12-12T22:56:51.027Z,8.93
2022-12-12T22:59:19.138Z,8.23
2022-12-12T23:01:47.094Z,8.73
2022-12-12T23:04:15.830Z,8.27
2022-12-12T23:06:45.355Z,6.60
2022-12-12T23:09:16.317Z,6.50
2022-12-12T23:11:45.917Z,6.45
2022-12-12T23:14:16.419Z,5.35
2022-12-12T23:16:44.808Z,4.68
2022-12-12T23:19:15.265Z,5.32
2022-12-12T23:21:44.822Z,5.35
2022-12-12T23:24:12.829Z,4.60
2022-12-12T23:26:40.933Z,4.53
2022-12-12T23:29:13.033Z,4.70
2022-12-12T23:31:41.037Z,4.80
2022-12-12T23:34:13.615Z,5.28
2022-12-12T23:36:42.614Z,4.95
2022-12-12T23:39:13.769Z,5.22
2022-12-12T23:41:45.294Z,4.65
2022-12-12T23:44:14.894Z,5.10
2022-12-12T23:46:43.293Z,5.13
2022-12-12T23:49:16.004Z,5.10
2022-12-12T23:51:45.382Z,4.93
2022-12-12T23:54:16.382Z,3.95
2022-12-12T23:56:45.148Z,4.93
2022-12-12T23:59:17.500Z,5.10
